createdAt,value
2019-01-11T00:01:09.213Z,31.50
2019-01-11T00:03:39.392Z,32.27
2019-01-11T00:06:09.319Z,31.20
2019-01-11T00:08:39.116Z,32.47
2019-01-11T00:11:09.540Z,33.37
2019-01-11T00:13:39.428Z,31.53
2019-01-11T00:16:09.169Z,30.00
2019-01-11T00:18:38.881Z,41.97
2019-01-11T00:21:08.617Z,31.73
2019-01-11T00:23:38.298Z,32.07
2019-01-11T00:26:09.116Z,35.37
2019-01-11T00:28:39.029Z,33.87
2019-01-11T00:31:08.750Z,31.93
2019-01-11T00:33:38.476Z,43.30
2019-01-11T00:36:08.224Z,36.73
2019-01-11T00:38:37.934Z,39.53
2019-01-11T00:41:07.704Z,37.73
2019-01-11T00:43:37.414Z,34.87
2019-01-11T00:46:07.093Z,39.73
2019-01-11T00:48:36.837Z,33.83
2019-01-11T00:51:06.646Z,33.73
2019-01-11T00:53:36.342Z,33.00
2019-01-11T00:56:06.286Z,31.70
2019-01-11T00:58:35.961Z,34.30
2019-01-11T01:01:05.741Z,39.07
2019-01-11T01:03:36.044Z,35.07
2019-01-11T01:06:06.394Z,36.90
2019-01-11T01:08:36.674Z,32.53
2019-01-11T01:11:06.632Z,47.43
2019-01-11T01:13:36.369Z,30.47
2019-01-11T01:16:06.265Z,30.00
2019-01-11T01:18:35.949Z,31.67
2019-01-11T01:21:05.654Z,31.53
2019-01-11T01:23:35.393Z,33.73
2019-01-11T01:26:05.292Z,33.73
2019-01-11T01:28:35.031Z,33.80
2019-01-11T01:31:04.933Z,32.90
2019-01-11T01:33:34.633Z,38.50
2019-01-11T01:36:04.456Z,37.03
2019-01-11T01:38:34.215Z,47.10
2019-01-11T01:41:09.399Z,35.27
2019-01-11T01:43:39.124Z,32.53
2019-01-11T01:46:09.092Z,31.00
2019-01-11T01:48:38.766Z,31.97
2019-01-11T01:51:08.453Z,42.73
2019-01-11T01:53:38.164Z,38.03
2019-01-11T01:56:07.858Z,31.07
2019-01-11T01:58:37.620Z,31.33
2019-01-11T02:01:07.515Z,46.53
2019-01-11T02:03:37.404Z,37.53
2019-01-11T02:06:07.170Z,33.20
2019-01-11T02:08:36.860Z,34.57
2019-01-11T02:11:06.550Z,77.03
2019-01-11T02:13:37.221Z,43.33
2019-01-11T02:16:07.018Z,41.93
2019-01-11T02:18:36.701Z,52.90
2019-01-11T02:21:06.447Z,37.77
2019-01-11T02:23:36.120Z,43.60
2019-01-11T02:26:06.123Z,37.60
2019-01-11T02:28:35.860Z,35.10
2019-01-11T02:31:05.627Z,32.77
2019-01-11T02:33:35.336Z,54.83
2019-01-11T02:36:05.230Z,38.63
2019-01-11T02:38:35.005Z,46.60
2019-01-11T02:41:04.682Z,36.30
2019-01-11T02:43:34.434Z,34.57
2019-01-11T02:46:04.133Z,40.83
2019-01-11T02:48:36.380Z,33.43
2019-01-11T02:51:06.563Z,41.33
2019-01-11T02:53:36.354Z,36.50
2019-01-11T02:56:06.108Z,40.57
2019-01-11T02:58:37.630Z,37.50
2019-01-11T03:01:07.333Z,35.13
2019-01-11T03:03:37.077Z,33.80
2019-01-11T03:06:06.914Z,32.47
2019-01-11T03:08:36.710Z,33.70
2019-01-11T03:11:06.571Z,33.67
2019-01-11T03:13:36.346Z,33.63
2019-01-11T03:16:06.046Z,30.67
2019-01-11T03:18:35.770Z,31.33
2019-01-11T03:21:06.249Z,31.93
2019-01-11T03:23:35.969Z,31.03
2019-01-11T03:26:05.866Z,30.63
2019-01-11T03:28:36.753Z,33.10
2019-01-11T03:31:29.583Z,33.63
2019-01-11T03:33:59.264Z,35.23
2019-01-11T03:36:28.981Z,37.07
2019-01-11T03:38:58.660Z,34.03
2019-01-11T03:41:28.390Z,32.73
2019-01-11T03:43:58.073Z,32.23
2019-01-11T03:46:27.791Z,32.20
2019-01-11T03:48:57.701Z,37.07
2019-01-11T03:51:27.581Z,35.77
2019-01-11T03:53:57.260Z,35.30
2019-01-11T03:56:26.962Z,36.00
2019-01-11T03:58:56.689Z,34.20
2019-01-11T04:01:26.377Z,34.93
2019-01-11T04:03:56.117Z,35.10
2019-01-11T04:06:26.722Z,34.27
2019-01-11T04:08:56.413Z,36.23
2019-01-11T04:11:26.171Z,30.30
2019-01-11T04:13:56.374Z,33.23
2019-01-11T04:16:26.074Z,33.13
2019-01-11T04:19:00.271Z,33.80
2019-01-11T04:21:30.458Z,33.83
2019-01-11T04:24:00.191Z,38.43
2019-01-11T04:26:29.875Z,35.83
2019-01-11T04:28:59.590Z,34.37
2019-01-11T04:31:29.358Z,34.40
2019-01-11T04:33:59.072Z,32.50
2019-01-11T04:36:29.201Z,36.73
2019-01-11T04:38:58.913Z,34.83
2019-01-11T04:41:29.065Z,36.73
2019-01-11T04:43:58.768Z,36.90
2019-01-11T04:46:28.460Z,34.63
2019-01-11T04:48:58.189Z,31.13
2019-01-11T04:51:27.892Z,27.10
2019-01-11T04:53:58.009Z,25.87
2019-01-11T04:56:27.693Z,26.87
2019-01-11T04:58:57.397Z,24.57
2019-01-11T05:01:27.594Z,24.90
2019-01-11T05:03:57.267Z,24.80
2019-01-11T05:06:26.991Z,26.40
2019-01-11T05:08:56.706Z,26.27
2019-01-11T05:11:26.403Z,26.23
2019-01-11T05:13:57.896Z,27.90
2019-01-11T05:16:27.591Z,25.53
2019-01-11T05:18:57.253Z,27.33
2019-01-11T05:21:27.037Z,25.33
2019-01-11T05:23:56.721Z,27.70
2019-01-11T05:26:26.422Z,27.67
2019-01-11T05:28:56.691Z,29.17
2019-01-11T05:31:26.381Z,28.93
2019-01-11T05:33:56.089Z,30.37
2019-01-11T05:36:25.846Z,31.90
2019-01-11T05:38:55.565Z,29.07
2019-01-11T05:41:25.261Z,29.57
2019-01-11T05:43:55.489Z,29.10
2019-01-11T05:46:25.209Z,28.70
2019-01-11T05:48:54.887Z,31.00
2019-01-11T05:51:24.889Z,33.63
2019-01-11T05:53:54.619Z,36.43
2019-01-11T05:56:24.347Z,36.00
2019-01-11T05:58:57.969Z,35.10
2019-01-11T06:01:27.668Z,38.73
2019-01-11T06:03:57.395Z,64.67
2019-01-11T06:06:28.688Z,118.53
2019-01-11T06:08:58.393Z,91.03
2019-01-11T06:11:28.191Z,36.97
2019-01-11T06:13:57.922Z,35.93
2019-01-11T06:16:27.622Z,68.10
2019-01-11T06:18:57.409Z,62.03
2019-01-11T06:21:27.138Z,64.47
2019-01-11T06:23:57.276Z,47.63
2019-01-11T06:26:27.268Z,39.00
2019-01-11T06:28:56.976Z,39.53
2019-01-11T06:31:27.219Z,34.13
2019-01-11T06:33:56.962Z,42.63
2019-01-11T06:36:26.636Z,38.37
2019-01-11T06:38:56.395Z,39.63
2019-01-11T06:41:28.362Z,45.80
2019-01-11T06:43:58.068Z,42.90
2019-01-11T06:46:27.797Z,35.57
2019-01-11T06:48:57.480Z,32.00
2019-01-11T06:51:27.271Z,31.10
2019-01-11T06:53:56.949Z,32.03
2019-01-11T06:56:26.631Z,30.83
2019-01-11T06:58:56.397Z,31.60
2019-01-11T07:01:26.069Z,30.90
2019-01-11T07:03:55.735Z,30.97
2019-01-11T07:06:25.510Z,36.80
2019-01-11T07:08:55.196Z,34.20
2019-01-11T07:11:24.973Z,29.63
2019-01-11T07:14:03.249Z,30.30
2019-01-11T07:16:33.576Z,34.73
2019-01-11T07:19:03.323Z,37.53
2019-01-11T07:21:33.053Z,33.63
2019-01-11T07:24:02.882Z,36.60
2019-01-11T07:26:32.605Z,33.03
2019-01-11T07:29:02.718Z,31.77
2019-01-11T07:31:34.394Z,35.67
2019-01-11T07:34:04.200Z,36.17
2019-01-11T07:36:36.245Z,39.23
2019-01-11T07:39:20.288Z,42.10
2019-01-11T07:41:50.912Z,32.30
2019-01-11T07:44:20.652Z,37.27
2019-01-11T07:46:50.328Z,37.83
2019-01-11T07:49:23.196Z,32.40
2019-01-11T07:51:51.494Z,33.93
2019-01-11T07:54:21.212Z,33.97
2019-01-11T07:56:51.026Z,36.43
2019-01-11T07:59:21.015Z,40.13
2019-01-11T08:01:50.875Z,37.20
2019-01-11T08:04:20.606Z,41.30
2019-01-11T08:06:50.311Z,41.00
2019-01-11T08:09:20.002Z,52.07
2019-01-11T08:11:52.139Z,41.53
2019-01-11T08:14:21.808Z,40.63
2019-01-11T08:16:51.504Z,42.93
2019-01-11T08:19:21.252Z,42.50
2019-01-11T08:21:50.942Z,42.10
2019-01-11T08:24:20.689Z,42.83
2019-01-11T08:26:51.895Z,42.17
2019-01-11T08:29:21.572Z,44.60
2019-01-11T08:31:52.994Z,41.53
2019-01-11T08:34:23.730Z,46.43
2019-01-11T08:36:53.440Z,48.63
2019-01-11T08:39:23.157Z,47.73
2019-01-11T08:41:52.889Z,43.17
2019-01-11T08:44:22.625Z,41.50
2019-01-11T08:46:52.314Z,43.50
2019-01-11T08:49:22.033Z,44.23
2019-01-11T08:51:51.730Z,42.60
2019-01-11T08:54:21.485Z,35.53
2019-01-11T08:56:51.194Z,36.20
2019-01-11T08:59:20.880Z,38.17
2019-01-11T09:01:50.625Z,37.53
2019-01-11T09:04:20.301Z,36.50
2019-01-11T09:06:49.980Z,38.17
2019-01-11T09:09:19.729Z,39.57
2019-01-11T09:11:49.456Z,39.27
2019-01-11T09:14:36.704Z,37.97
2019-01-11T09:17:06.473Z,37.77
2019-01-11T09:19:36.169Z,37.43
2019-01-11T09:22:05.891Z,37.80
2019-01-11T09:24:36.209Z,36.57
2019-01-11T09:27:05.909Z,36.47
2019-01-11T09:29:35.605Z,38.77
2019-01-11T09:32:05.652Z,37.20
2019-01-11T09:34:35.385Z,37.00
2019-01-11T09:37:05.186Z,39.23
2019-01-11T09:39:35.010Z,42.37
2019-01-11T09:42:04.717Z,34.87
2019-01-11T09:44:35.548Z,35.17
2019-01-11T09:47:05.382Z,37.70
2019-01-11T09:49:35.347Z,38.27
2019-01-11T09:52:05.585Z,37.93
2019-01-11T09:54:35.273Z,38.57
2019-01-11T09:57:05.042Z,38.97
2019-01-11T09:59:35.304Z,41.23
2019-01-11T10:02:25.768Z,40.17
2019-01-11T10:04:56.385Z,39.63
2019-01-11T10:07:28.168Z,39.37
2019-01-11T10:09:57.855Z,36.43
2019-01-11T10:12:27.587Z,42.00
2019-01-11T10:14:57.273Z,33.77
2019-01-11T10:17:27.898Z,35.83
2019-01-11T10:19:58.728Z,33.60
2019-01-11T10:22:28.416Z,35.73
2019-01-11T10:24:58.130Z,35.17
2019-01-11T10:27:27.888Z,35.60
2019-01-11T10:29:57.590Z,36.47
2019-01-11T10:32:27.290Z,35.97
2019-01-11T10:34:59.980Z,36.07
2019-01-11T10:37:29.853Z,34.60
2019-01-11T10:39:59.723Z,37.50
2019-01-11T10:42:29.766Z,34.97
2019-01-11T10:45:00.767Z,36.20
2019-01-11T10:47:30.635Z,35.53
2019-01-11T10:50:00.494Z,36.87
2019-01-11T10:52:31.374Z,35.97
2019-01-11T10:55:01.307Z,36.43
2019-01-11T10:57:31.182Z,37.60
2019-01-11T11:00:01.047Z,36.57
2019-01-11T11:02:30.944Z,37.47
2019-01-11T11:05:01.471Z,40.70
2019-01-11T11:07:31.315Z,36.73
2019-01-11T11:10:01.426Z,37.67
2019-01-11T11:12:32.569Z,38.30
2019-01-11T11:15:02.444Z,37.23
2019-01-11T11:17:32.322Z,35.80
2019-01-11T11:20:02.581Z,37.73
2019-01-11T11:22:32.477Z,35.60
2019-01-11T11:25:02.945Z,37.23
2019-01-11T11:27:32.837Z,40.27
2019-01-11T11:30:02.731Z,38.97
2019-01-11T11:32:57.547Z,41.00
2019-01-11T11:35:29.012Z,41.70
2019-01-11T11:37:58.926Z,38.53
2019-01-11T11:40:30.237Z,38.53
2019-01-11T11:43:00.177Z,39.17
2019-01-11T11:45:30.289Z,39.13
2019-01-11T11:48:01.033Z,41.20
2019-01-11T11:50:30.912Z,41.17
2019-01-11T11:53:01.535Z,39.97
2019-01-11T11:55:31.516Z,41.27
2019-01-11T11:58:01.435Z,41.20
2019-01-11T12:00:31.401Z,40.73
2019-01-11T12:03:01.363Z,42.43
2019-01-11T12:05:31.229Z,39.40
2019-01-11T12:08:01.914Z,42.80
2019-01-11T12:10:31.841Z,43.23
2019-01-11T12:13:01.870Z,40.10
2019-01-11T12:15:32.198Z,42.30
2019-01-11T12:18:02.043Z,43.53
2019-01-11T12:20:34.221Z,44.57
2019-01-11T12:23:04.361Z,44.10
2019-01-11T12:25:34.227Z,44.50
2019-01-11T12:28:04.104Z,45.53
2019-01-11T12:30:34.236Z,44.00
2019-01-11T12:33:04.200Z,43.43
2019-01-11T12:35:34.090Z,42.33
2019-01-11T12:38:04.034Z,45.83
2019-01-11T12:40:33.886Z,45.30
2019-01-11T12:43:04.007Z,44.37
2019-01-11T12:45:34.114Z,42.63
2019-01-11T12:48:04.102Z,44.30
2019-01-11T12:50:34.572Z,42.90
2019-01-11T12:53:04.530Z,44.80
2019-01-11T12:55:34.422Z,44.50
2019-01-11T12:58:04.385Z,45.43
2019-01-11T13:00:34.284Z,48.10
2019-01-11T13:03:04.253Z,51.30
2019-01-11T13:05:34.124Z,47.23
2019-01-11T13:08:04.071Z,52.00
2019-01-11T13:10:34.046Z,46.40
2019-01-11T13:13:03.950Z,41.13
2019-01-11T13:15:33.884Z,42.27
2019-01-11T13:18:03.854Z,44.10
2019-01-11T13:20:33.709Z,45.90
2019-01-11T13:23:03.918Z,45.07
2019-01-11T13:25:33.799Z,46.87
2019-01-11T13:28:04.673Z,46.93
2019-01-11T13:30:34.595Z,46.33
2019-01-11T13:33:04.674Z,44.87
2019-01-11T13:35:34.542Z,42.17
2019-01-11T13:38:04.669Z,44.77
2019-01-11T13:40:34.607Z,46.47
2019-01-11T13:43:04.587Z,47.27
2019-01-11T13:45:34.737Z,46.87
2019-01-11T13:48:04.711Z,44.20
2019-01-11T13:50:39.711Z,46.80
2019-01-11T13:53:11.660Z,47.80
2019-01-11T13:55:41.518Z,45.50
2019-01-11T13:58:11.404Z,47.07
2019-01-11T14:00:41.544Z,45.07
2019-01-11T14:03:11.451Z,43.70
2019-01-11T14:05:41.316Z,45.13
2019-01-11T14:08:11.422Z,42.73
2019-01-11T14:10:41.326Z,44.90
2019-01-11T14:13:11.388Z,40.17
2019-01-11T14:15:41.420Z,44.17
2019-01-11T14:18:11.382Z,42.23
2019-01-11T14:20:41.362Z,46.63
2019-01-11T14:23:14.562Z,47.60
2019-01-11T14:25:44.397Z,44.37
2019-01-11T14:28:14.304Z,43.10
2019-01-11T14:30:44.224Z,44.53
2019-01-11T14:33:14.114Z,43.83
2019-01-11T14:35:44.055Z,46.53
2019-01-11T14:38:14.408Z,47.20
2019-01-11T14:40:45.370Z,45.27
2019-01-11T14:43:15.735Z,48.33
2019-01-11T14:45:46.762Z,46.50
2019-01-11T14:48:16.651Z,46.40
2019-01-11T14:50:46.583Z,44.47
2019-01-11T14:53:17.887Z,47.33
2019-01-11T14:55:47.769Z,43.73
2019-01-11T14:58:17.671Z,44.37
2019-01-11T15:00:47.569Z,43.77
2019-01-11T15:03:17.605Z,42.87
2019-01-11T15:05:47.522Z,44.27
2019-01-11T15:08:17.435Z,42.03
2019-01-11T15:10:47.728Z,43.67
2019-01-11T15:13:17.618Z,45.37
2019-01-11T15:15:47.533Z,42.07
2019-01-11T15:18:17.562Z,41.50
2019-01-11T15:20:47.518Z,42.07
2019-01-11T15:23:17.400Z,41.40
2019-01-11T15:25:47.743Z,40.60
2019-01-11T15:28:18.689Z,42.73
2019-01-11T15:31:02.845Z,42.70
2019-01-11T15:33:32.740Z,41.63
2019-01-11T15:36:03.748Z,43.47
2019-01-11T15:38:33.676Z,45.63
2019-01-11T15:41:03.578Z,44.63
2019-01-11T15:43:33.506Z,43.77
2019-01-11T15:46:05.324Z,44.50
2019-01-11T15:48:46.553Z,44.73
2019-01-11T15:51:18.219Z,44.07
2019-01-11T15:53:48.095Z,44.90
2019-01-11T15:56:24.390Z,44.83
2019-01-11T15:58:54.245Z,42.37
2019-01-11T16:01:24.426Z,43.60
2019-01-11T16:03:54.400Z,40.37
2019-01-11T16:06:35.553Z,42.00
2019-01-11T16:09:56.961Z,39.63
2019-01-11T16:12:35.792Z,40.50
2019-01-11T16:15:27.388Z,42.03
2019-01-11T16:17:59.783Z,42.67
2019-01-11T16:20:29.719Z,42.03
2019-01-11T16:22:59.670Z,42.93
2019-01-11T16:25:29.608Z,39.70
2019-01-11T16:28:00.072Z,39.93
2019-01-11T16:30:30.049Z,39.87
2019-01-11T16:32:59.945Z,38.50
2019-01-11T16:35:29.884Z,39.33
2019-01-11T16:37:59.846Z,37.73
2019-01-11T16:40:29.744Z,38.30
2019-01-11T16:42:59.729Z,38.17
2019-01-11T16:45:29.673Z,40.40
2019-01-11T16:47:59.585Z,38.97
2019-01-11T16:50:29.459Z,39.87
2019-01-11T16:52:59.393Z,37.83
2019-01-11T16:55:29.383Z,38.63
2019-01-11T16:57:59.291Z,39.50
2019-01-11T17:00:29.295Z,37.57
2019-01-11T17:02:59.208Z,38.00
2019-01-11T17:05:29.167Z,38.43
2019-01-11T17:07:59.116Z,41.00
2019-01-11T17:10:29.027Z,39.27
2019-01-11T17:12:58.905Z,39.60
2019-01-11T17:15:28.901Z,37.67
2019-01-11T17:17:58.817Z,38.63
2019-01-11T17:20:28.703Z,37.87
2019-01-11T17:22:58.665Z,38.77
2019-01-11T17:25:28.666Z,40.00
2019-01-11T17:27:58.574Z,40.30
2019-01-11T17:30:28.558Z,40.17
2019-01-11T17:32:58.455Z,39.80
2019-01-11T17:35:28.376Z,38.43
2019-01-11T17:37:58.307Z,37.77
2019-01-11T17:40:28.396Z,39.80
2019-01-11T17:42:58.319Z,36.23
2019-01-11T17:45:28.319Z,37.77
2019-01-11T17:47:58.399Z,39.13
2019-01-11T17:50:28.326Z,38.70
2019-01-11T17:52:59.938Z,37.93
2019-01-11T17:55:29.810Z,38.47
2019-01-11T17:57:59.664Z,36.00
2019-01-11T18:00:29.570Z,37.70
2019-01-11T18:02:59.493Z,36.37
2019-01-11T18:05:29.374Z,36.87
2019-01-11T18:07:59.557Z,39.50
2019-01-11T18:10:29.753Z,35.77
2019-01-11T18:12:59.690Z,35.50
2019-01-11T18:15:29.661Z,37.60
2019-01-11T18:17:59.551Z,38.53
2019-01-11T18:20:30.352Z,34.70
2019-01-11T18:23:06.582Z,41.10
2019-01-11T18:25:32.027Z,38.87
2019-01-11T18:28:01.917Z,37.73
2019-01-11T18:30:32.333Z,49.40
2019-01-11T18:33:02.341Z,39.13
2019-01-11T18:35:32.347Z,43.67
2019-01-11T18:38:02.391Z,34.40
2019-01-11T18:40:32.388Z,40.30
2019-01-11T18:43:02.559Z,34.23
2019-01-11T18:45:32.452Z,44.83
2019-01-11T18:48:02.568Z,36.43
2019-01-11T18:50:32.508Z,37.57
2019-01-11T18:53:02.397Z,38.47
2019-01-11T18:55:32.460Z,35.73
2019-01-11T18:58:02.387Z,39.43
2019-01-11T19:00:32.285Z,33.23
2019-01-11T19:03:02.300Z,37.67
2019-01-11T19:05:32.306Z,42.95
2019-01-11T19:08:02.776Z,36.63
2019-01-11T19:10:32.806Z,36.27
2019-01-11T19:13:02.818Z,34.77
2019-01-11T19:15:32.899Z,36.17
2019-01-11T19:18:03.087Z,55.50
2019-01-11T19:20:33.448Z,38.67
2019-01-11T19:23:04.229Z,34.60
2019-01-11T19:25:37.097Z,36.50
2019-01-11T19:28:07.038Z,42.37
2019-01-11T19:30:37.022Z,39.73
2019-01-11T19:33:06.922Z,39.90
2019-01-11T19:35:36.857Z,38.90
2019-01-11T19:38:07.094Z,37.70
2019-01-11T19:40:37.060Z,36.87
2019-01-11T19:43:07.092Z,38.20
2019-01-11T19:45:37.144Z,37.33
2019-01-11T19:48:07.278Z,40.85
2019-01-11T19:50:37.902Z,52.23
2019-01-11T19:53:08.064Z,47.93
2019-01-11T19:55:38.074Z,38.40
2019-01-11T19:58:08.113Z,32.37
2019-01-11T20:00:38.064Z,37.13
2019-01-11T20:03:08.891Z,35.40
2019-01-11T20:05:38.921Z,33.83
2019-01-11T20:08:09.590Z,40.43
2019-01-11T20:10:39.943Z,32.97
2019-01-11T20:13:10.085Z,38.53
2019-01-11T20:15:40.154Z,36.43
2019-01-11T20:18:10.198Z,29.77
2019-01-11T20:20:40.213Z,32.30
2019-01-11T20:23:10.214Z,31.53
2019-01-11T20:25:40.097Z,34.37
2019-01-11T20:28:10.143Z,30.10
2019-01-11T20:30:40.038Z,35.00
2019-01-11T20:33:09.988Z,34.00
2019-01-11T20:35:40.242Z,31.83
2019-01-11T20:45:03.597Z,29.10
2019-01-11T20:47:33.561Z,28.07
2019-01-11T20:50:03.713Z,26.73
2019-01-11T20:52:33.652Z,27.30
2019-01-11T20:55:03.629Z,27.43
2019-01-11T20:57:33.624Z,29.63
2019-01-11T21:00:05.115Z,29.00
2019-01-11T21:02:35.146Z,29.50
2019-01-11T21:05:08.914Z,35.80
2019-01-11T21:07:39.104Z,31.90
2019-01-11T21:10:23.452Z,50.13
2019-01-11T21:12:53.666Z,29.13
2019-01-11T21:15:24.497Z,31.27
2019-01-11T21:17:54.557Z,29.10
2019-01-11T21:20:26.296Z,26.53
2019-01-11T21:22:57.900Z,32.37
2019-01-11T21:25:28.530Z,29.37
2019-01-11T21:27:58.417Z,29.40
2019-01-11T21:30:32.442Z,34.30
2019-01-11T21:33:02.325Z,27.93
2019-01-11T21:35:32.393Z,28.83
2019-01-11T21:38:02.323Z,27.70
2019-01-11T21:40:32.438Z,30.23
2019-01-11T21:43:02.489Z,29.97
2019-01-11T21:45:32.989Z,31.67
2019-01-11T21:48:02.813Z,32.17
2019-01-11T21:50:32.741Z,30.27
2019-01-11T21:53:02.606Z,30.97
2019-01-11T21:55:32.720Z,27.93
2019-01-11T21:58:02.635Z,26.33
2019-01-11T22:00:35.571Z,26.87
2019-01-11T22:03:06.362Z,25.87
2019-01-11T22:05:39.137Z,23.50
2019-01-11T22:08:09.170Z,25.47
2019-01-11T22:10:39.060Z,26.60
2019-01-11T22:13:08.944Z,28.63
2019-01-11T22:15:39.080Z,30.83
2019-01-11T22:18:09.067Z,27.50
2019-01-11T22:20:38.926Z,26.53
2019-01-11T22:23:08.836Z,29.73
2019-01-11T22:25:38.751Z,30.73
2019-01-11T22:28:08.722Z,43.50
2019-01-11T22:30:38.598Z,52.73
2019-01-11T22:33:08.575Z,34.80
2019-01-11T22:35:38.548Z,29.33
2019-01-11T22:38:08.608Z,29.57
2019-01-11T22:40:38.511Z,26.63
2019-01-11T22:43:08.427Z,26.43
2019-01-11T22:45:38.413Z,28.77
2019-01-11T22:48:08.304Z,26.47
2019-01-11T22:50:38.190Z,27.87
2019-01-11T22:53:08.203Z,25.90
2019-01-11T22:55:38.358Z,29.17
2019-01-11T22:58:08.962Z,28.90
2019-01-11T23:01:08.754Z,34.53
2019-01-11T23:03:47.681Z,29.93
2019-01-11T23:07:02.542Z,27.67
2019-01-11T23:09:41.752Z,28.20
2019-01-11T23:12:32.199Z,30.23
2019-01-11T23:15:02.106Z,24.73
2019-01-11T23:18:03.559Z,27.07
2019-01-11T23:20:33.865Z,30.47
2019-01-11T23:23:03.769Z,29.07
2019-01-11T23:25:33.699Z,30.40
2019-01-11T23:28:03.662Z,35.83
2019-01-11T23:30:33.520Z,32.40
2019-01-11T23:33:03.451Z,33.10
2019-01-11T23:35:33.309Z,33.60
2019-01-11T23:38:03.876Z,32.67
2019-01-11T23:40:33.865Z,36.10
2019-01-11T23:43:03.925Z,35.70
2019-01-11T23:45:33.876Z,33.17
2019-01-11T23:48:03.874Z,33.47
2019-01-11T23:50:33.789Z,33.63
2019-01-11T23:53:03.773Z,34.13
2019-01-11T23:55:33.952Z,29.40
2019-01-11T23:58:03.893Z,31.47
